Time;durP1;ratioP1;P1;durP2;ratioP2;P2;SDS_P1;SDS_P2;PMS_P1;PMS_P2;Temp;Humidity;BMP_temperature;BMP_pressure;BME280_temperature;BME280_humidity;BME280_pressure;Samples;Min_cycle;Max_cycle;Signal;HPM_P1;HPM_P2
2023/08/28 00:00:13;;;;;;;1.45;0.90;;;;;;;;;;4398854;32;59067;-61
2023/08/28 00:03:02;;;;;;;2.08;1.10;;;;;;;;;;4398469;32;70772;-61
2023/08/28 00:05:51;;;;;;;1.80;1.12;;;;;;;;;;4398161;32;65965;-62
2023/08/28 00:08:38;;;;;;;1.50;1.08;;;;;;;;;;4398560;32;66969;-61
2023/08/28 00:11:24;;;;;;;1.83;1.10;;;;;;;;;;4397576;32;60042;-61
2023/08/28 00:14:13;;;;;;;1.75;1.30;;;;;;;;;;4398548;32;69365;-62
2023/08/28 00:16:59;;;;;;;1.33;1.10;;;;;;;;;;4398241;32;69192;-62
2023/08/28 00:19:51;;;;;;;1.55;0.90;;;;;;;;;;4397184;32;67393;-61
2023/08/28 00:22:38;;;;;;;;;;;;;;;;;;4399097;32;70538;-61
2023/08/28 00:25:29;;;;;;;1.40;0.80;;;;;;;;;;4399152;32;65989;-61
2023/08/28 00:28:18;;;;;;;1.30;0.93;;;;;;;;;;4401044;32;69317;-61
2023/08/28 00:31:05;;;;;;;1.02;0.70;;;;;;;;;;4397151;32;66857;-61
2023/08/28 00:33:54;;;;;;;1.85;0.88;;;;;;;;;;4396955;32;71756;-61
2023/08/28 00:36:42;;;;;;;1.62;0.85;;;;;;;;;;4396963;32;65622;-61
2023/08/28 00:39:31;;;;;;;1.02;0.77;;;;;;;;;;4396468;32;65403;-62
2023/08/28 00:42:17;;;;;;;1.08;0.95;;;;;;;;;;4398481;32;59181;-61
2023/08/28 00:45:04;;;;;;;;;;;;;;;;;;4397213;32;70390;-61
2023/08/28 00:47:53;;;;;;;1.80;1.17;;;;;;;;;;4398983;32;68222;-61
2023/08/28 00:50:39;;;;;;;2.05;1.10;;;;;;;;;;4396781;32;67996;-61
2023/08/28 00:53:28;;;;;;;0.73;0.73;;;;;;;;;;4397131;32;59995;-60
2023/08/28 00:56:14;;;;;;;1.12;0.75;;;;;;;;;;4396461;32;69928;-61
2023/08/28 00:59:01;;;;;;;;;;;;;;;;;;4397128;32;68335;-60
2023/08/28 01:01:52;;;;;;;1.17;0.90;;;;;;;;;;4376075;32;67741;-61
2023/08/28 01:04:39;;;;;;;2.17;1.00;;;;;;;;;;4385845;32;71616;-61
2023/08/28 01:07:56;;;;;;;2.25;1.20;;;;;;;;;;4396624;32;66182;-61
2023/08/28 01:10:55;;;;;;;1.27;0.80;;;;;;;;;;4398048;32;67124;-61
2023/08/28 01:14:16;;;;;;;3.05;0.55;;;;;;;;;;4396783;32;60473;-60
2023/08/28 01:17:06;;;;;;;1.52;1.02;;;;;;;;;;4384579;32;70176;-61
2023/08/28 01:19:55;;;;;;;1.40;0.80;;;;;;;;;;4400603;32;65817;-61
2023/08/28 01:22:55;;;;;;;1.30;0.75;;;;;;;;;;4388708;32;67965;-61
2023/08/28 01:25:42;;;;;;;1.35;0.95;;;;;;;;;;4400728;32;60271;-61
2023/08/28 01:28:32;;;;;;;1.33;0.90;;;;;;;;;;4398650;32;70222;-62
2023/08/28 01:31:23;;;;;;;1.33;0.95;;;;;;;;;;4401926;32;68361;-61
2023/08/28 01:34:10;;;;;;;1.25;1.00;;;;;;;;;;4400658;32;68100;-60
2023/08/28 01:37:01;;;;;;;2.85;1.50;;;;;;;;;;4400150;32;70772;-62
2023/08/28 01:39:50;;;;;;;3.15;1.08;;;;;;;;;;4399295;32;64848;-62
2023/08/28 01:42:37;;;;;;;1.17;1.02;;;;;;;;;;4388764;32;67941;-62
2023/08/28 01:45:25;;;;;;;;;;;;;;;;;;4399554;32;67558;-61
2023/08/28 01:48:11;;;;;;;1.17;0.90;;;;;;;;;;4388408;32;72027;-62
2023/08/28 01:50:58;;;;;;;3.05;1.40;;;;;;;;;;4387792;32;66648;-61
2023/08/28 01:53:45;;;;;;;;;;;;;;;;;;4388178;32;68106;-62
2023/08/28 01:56:32;;;;;;;1.10;1.00;;;;;;;;;;4400194;32;58536;-61
2023/08/28 01:59:19;;;;;;;1.42;1.02;;;;;;;;;;4398262;32;71117;-60
2023/08/28 02:02:07;;;;;;;1.48;0.82;;;;;;;;;;4398791;32;69413;-61
2023/08/28 02:04:54;;;;;;;1.87;1.27;;;;;;;;;;4398714;32;68244;-61
2023/08/28 02:07:42;;;;;;;2.67;1.08;;;;;;;;;;4400243;32;71619;-61
2023/08/28 02:10:28;;;;;;;1.77;1.12;;;;;;;;;;4398617;32;70691;-61
2023/08/28 02:13:10;;;;;;;1.25;1.15;;;;;;;;;;3847445;37;43873;-61
2023/08/28 02:15:57;;;;;;;3.90;1.10;;;;;;;;;;4411164;32;59716;-62
2023/08/28 02:18:43;;;;;;;;;;;;;;;;;;4410252;32;70248;-61
2023/08/28 02:21:30;;;;;;;2.00;1.20;;;;;;;;;;4398126;32;68941;-62
2023/08/28 02:24:18;;;;;;;1.00;0.90;;;;;;;;;;4399049;32;66765;-61
2023/08/28 02:27:04;;;;;;;2.00;1.30;;;;;;;;;;4409625;32;71547;-62
2023/08/28 02:29:51;;;;;;;1.60;1.00;;;;;;;;;;4410920;32;64920;-62
2023/08/28 02:32:45;;;;;;;1.65;1.10;;;;;;;;;;4411327;32;67191;-62
2023/08/28 02:35:38;;;;;;;3.03;0.77;;;;;;;;;;4414693;32;60146;-62
2023/08/28 02:38:25;;;;;;;0.80;0.55;;;;;;;;;;4398690;32;71917;-61
2023/08/28 02:41:11;;;;;;;1.10;0.90;;;;;;;;;;4410719;32;66180;-61
2023/08/28 02:44:01;;;;;;;1.73;1.00;;;;;;;;;;4409386;32;67658;-62
2023/08/28 02:46:45;;;;;;;1.77;1.20;;;;;;;;;;3847485;37;43060;-61
2023/08/28 02:49:35;;;;;;;1.85;1.00;;;;;;;;;;4409865;32;60030;-61
2023/08/28 02:52:29;;;;;;;1.80;1.17;;;;;;;;;;4409955;32;70703;-61
2023/08/28 02:55:22;;;;;;;1.17;1.02;;;;;;;;;;4399772;32;69495;-61
2023/08/28 02:58:13;;;;;;;1.45;1.20;;;;;;;;;;4410771;32;67867;-62
2023/08/28 03:01:09;;;;;;;1.02;0.98;;;;;;;;;;4398849;32;72086;-61
2023/08/28 03:03:57;;;;;;;1.23;1.02;;;;;;;;;;4398400;32;67097;-61
2023/08/28 03:06:44;;;;;;;2.22;1.05;;;;;;;;;;4409786;32;67252;-61
2023/08/28 03:09:41;;;;;;;2.10;1.23;;;;;;;;;;4410872;32;59207;-60
2023/08/28 03:12:30;;;;;;;2.65;0.98;;;;;;;;;;4410639;32;71720;-62
2023/08/28 03:15:17;;;;;;;2.08;1.17;;;;;;;;;;4409410;32;64799;-61
2023/08/28 03:18:07;;;;;;;1.87;1.10;;;;;;;;;;4397899;32;68361;-62
2023/08/28 03:23:37;;;;;;;1.25;1.08;;;;;;;;;;3868948;36;43119;-61
2023/08/28 03:26:30;;;;;;;1.50;1.02;;;;;;;;;;4414415;32;60260;-61
2023/08/28 03:29:21;;;;;;;1.02;0.88;;;;;;;;;;4426330;32;70674;-61
2023/08/28 03:32:08;;;;;;;1.73;1.50;;;;;;;;;;4427247;32;69708;-61
2023/08/28 03:34:54;;;;;;;1.15;0.88;;;;;;;;;;4414344;32;66812;-62
2023/08/28 03:37:43;;;;;;;2.00;1.15;;;;;;;;;;4426261;32;70929;-62
2023/08/28 03:40:32;;;;;;;1.37;0.93;;;;;;;;;;4426833;32;64836;-61
2023/08/28 03:43:27;;;;;;;1.30;0.73;;;;;;;;;;4426340;32;67438;-62
2023/08/28 03:46:13;;;;;;;1.10;0.85;;;;;;;;;;4414601;32;59733;-61
2023/08/28 03:49:05;;;;;;;2.62;1.27;;;;;;;;;;4427219;32;70727;-61
2023/08/28 03:51:55;;;;;;;1.23;1.00;;;;;;;;;;4414474;32;66186;-61
2023/08/28 03:54:47;;;;;;;1.42;0.90;;;;;;;;;;4403629;32;67375;-62
2023/08/28 03:57:39;;;;;;;1.73;1.02;;;;;;;;;;4414723;32;59213;-62
2023/08/28 04:00:29;;;;;;;1.37;1.27;;;;;;;;;;4411598;32;71122;-61
2023/08/28 04:03:18;;;;;;;0.95;0.77;;;;;;;;;;4429822;32;69146;-61
2023/08/28 04:06:05;;;;;;;1.50;0.65;;;;;;;;;;4426467;32;66775;-62
2023/08/28 04:08:54;;;;;;;1.95;1.20;;;;;;;;;;4410580;32;72133;-61
2023/08/28 04:11:46;;;;;;;1.48;1.15;;;;;;;;;;4411275;32;64854;-62
2023/08/28 04:14:32;;;;;;;1.77;0.95;;;;;;;;;;4401746;32;69638;-62
2023/08/28 04:17:21;;;;;;;1.10;0.90;;;;;;;;;;4414518;32;67901;-64
2023/08/28 04:20:13;;;;;;;3.30;1.02;;;;;;;;;;4422882;32;72015;-61
2023/08/28 04:23:02;;;;;;;0.85;0.70;;;;;;;;;;4407617;32;67195;-62
2023/08/28 04:26:00;;;;;;;1.62;0.80;;;;;;;;;;4419648;32;67985;-61
2023/08/28 04:28:49;;;;;;;1.15;0.90;;;;;;;;;;4428840;32;59369;-61
2023/08/28 04:31:38;;;;;;;1.20;1.10;;;;;;;;;;4427370;32;69780;-61
2023/08/28 04:34:30;;;;;;;2.25;1.17;;;;;;;;;;4390174;32;70141;-62
2023/08/28 04:37:19;;;;;;;1.30;1.00;;;;;;;;;;4396193;32;67608;-62
2023/08/28 04:40:07;;;;;;;1.52;1.02;;;;;;;;;;4407970;32;60389;-61
2023/08/28 04:42:57;;;;;;;2.33;1.33;;;;;;;;;;4399715;32;71109;-62
2023/08/28 04:45:52;;;;;;;1.77;1.20;;;;;;;;;;4409630;32;69937;-61
2023/08/28 04:48:39;;;;;;;1.37;1.00;;;;;;;;;;4392353;32;66712;-62
2023/08/28 04:51:32;;;;;;;0.80;0.80;;;;;;;;;;4398083;32;70837;-63
2023/08/28 04:54:24;;;;;;;1.25;0.93;;;;;;;;;;4402570;32;65070;-62
2023/08/28 04:57:11;;;;;;;1.67;1.20;;;;;;;;;;4389542;32;67705;-61
2023/08/28 05:00:00;;;;;;;1.08;0.80;;;;;;;;;;4364355;32;59843;-61
2023/08/28 05:02:50;;;;;;;0.40;0.40;;;;;;;;;;4399366;32;69496;-62
2023/08/28 05:05:46;;;;;;;1.62;1.00;;;;;;;;;;4399801;32;64963;-62
2023/08/28 05:08:38;;;;;;;2.53;1.00;;;;;;;;;;4374262;32;67944;-60
2023/08/28 05:11:27;;;;;;;1.92;1.00;;;;;;;;;;4399679;32;60173;-62
2023/08/28 05:14:13;;;;;;;0.70;0.70;;;;;;;;;;4387748;32;70338;-61
2023/08/28 05:17:00;;;;;;;1.23;0.98;;;;;;;;;;4387487;32;69379;-59
2023/08/28 05:19:46;;;;;;;0.73;0.73;;;;;;;;;;4387270;32;67507;-61
2023/08/28 05:22:33;;;;;;;3.08;1.10;;;;;;;;;;4386963;32;70856;-61
2023/08/28 05:25:30;;;;;;;1.85;1.08;;;;;;;;;;4387659;32;66090;-62
2023/08/28 05:28:19;;;;;;;3.03;1.20;;;;;;;;;;4387733;32;67531;-62
2023/08/28 05:31:11;;;;;;;1.25;0.70;;;;;;;;;;4384482;32;68451;-63
2023/08/28 05:33:57;;;;;;;1.95;1.20;;;;;;;;;;4387199;32;70930;-62
2023/08/28 05:36:44;;;;;;;;;;;;;;;;;;4387812;32;65758;-60
2023/08/28 05:39:38;;;;;;;1.50;0.80;;;;;;;;;;4374852;32;68176;-62
2023/08/28 05:42:30;;;;;;;3.08;1.23;;;;;;;;;;4377213;32;60357;-62
2023/08/28 05:45:22;;;;;;;1.55;0.80;;;;;;;;;;4398085;32;69698;-62
2023/08/28 05:48:11;;;;;;;1.40;0.40;;;;;;;;;;4387459;32;68333;-62
2023/08/28 05:51:03;;;;;;;1.02;0.77;;;;;;;;;;4399961;32;66895;-62
2023/08/28 05:53:49;;;;;;;1.58;1.10;;;;;;;;;;4399307;32;59983;-62
2023/08/28 05:56:36;;;;;;;1.62;0.85;;;;;;;;;;4373728;32;71097;-61
2023/08/28 05:59:25;;;;;;;;;;;;;;;;;;4399099;32;68107;-63
2023/08/28 06:02:15;;;;;;;1.62;1.15;;;;;;;;;;4387742;32;67810;-61
2023/08/28 06:05:05;;;;;;;;;;;;;;;;;;4363292;32;72410;-61
2023/08/28 06:07:51;;;;;;;1.48;1.10;;;;;;;;;;4398943;32;65492;-62
2023/08/28 06:10:42;;;;;;;1.95;1.00;;;;;;;;;;4387167;32;67554;-60
2023/08/28 06:13:30;;;;;;;1.02;0.93;;;;;;;;;;4387184;32;60214;-61
2023/08/28 06:16:19;;;;;;;1.05;0.80;;;;;;;;;;4375947;32;70451;-61
2023/08/28 06:19:06;;;;;;;1.73;0.93;;;;;;;;;;4383709;32;67205;-60
2023/08/28 06:21:55;;;;;;;0.80;0.70;;;;;;;;;;4383674;32;68183;-60
2023/08/28 06:24:42;;;;;;;1.50;1.05;;;;;;;;;;4400534;32;60113;-60
2023/08/28 06:27:34;;;;;;;3.17;1.17;;;;;;;;;;4386385;32;69628;-61
2023/08/28 06:30:20;;;;;;;1.67;1.05;;;;;;;;;;4386751;32;68357;-59
2023/08/28 06:33:07;;;;;;;0.80;0.68;;;;;;;;;;4398722;32;67727;-61
2023/08/28 06:35:53;;;;;;;0.57;0.50;;;;;;;;;;4398381;32;71860;-61
2023/08/28 06:38:43;;;;;;;0.62;0.62;;;;;;;;;;4386850;32;65671;-61
2023/08/28 06:41:32;;;;;;;0.85;0.80;;;;;;;;;;4387092;32;66728;-62
2023/08/28 06:44:29;;;;;;;2.05;0.98;;;;;;;;;;4398452;32;66328;-63
2023/08/28 06:47:15;;;;;;;1.80;1.20;;;;;;;;;;4398263;32;71723;-61
2023/08/28 06:50:09;;;;;;;1.48;0.75;;;;;;;;;;4399167;32;65896;-60
2023/08/28 06:52:56;;;;;;;1.95;0.70;;;;;;;;;;4374704;32;68288;-62
2023/08/28 06:55:42;;;;;;;1.60;0.88;;;;;;;;;;4375963;32;59189;-61
2023/08/28 06:58:32;;;;;;;1.60;0.70;;;;;;;;;;4386619;32;70656;-61
2023/08/28 07:01:19;;;;;;;1.60;1.02;;;;;;;;;;4362402;32;69929;-62
2023/08/28 07:04:05;;;;;;;1.87;1.00;;;;;;;;;;4375379;32;67725;-62
2023/08/28 07:06:56;;;;;;;1.87;1.23;;;;;;;;;;4376072;32;70665;-63
2023/08/28 07:09:44;;;;;;;1.75;1.12;;;;;;;;;;4383288;32;71510;-60
2023/08/28 07:12:33;;;;;;;0.40;0.35;;;;;;;;;;4398347;32;69557;-63
2023/08/28 07:15:42;;;;;;;0.60;0.60;;;;;;;;;;4386120;32;67486;-61
2023/08/28 07:18:29;;;;;;;1.87;0.97;;;;;;;;;;4383252;32;70932;-61
2023/08/28 07:21:16;;;;;;;0.88;0.80;;;;;;;;;;4386186;32;65623;-62
2023/08/28 07:24:02;;;;;;;0.73;0.73;;;;;;;;;;4398291;32;66819;-62
2023/08/28 07:26:48;;;;;;;;;;;;;;;;;;4399283;32;60223;-61
2023/08/28 07:29:35;;;;;;;1.02;0.55;;;;;;;;;;4398232;32;70263;-61
2023/08/28 07:32:21;;;;;;;2.60;1.23;;;;;;;;;;4397780;32;69375;-61
2023/08/28 07:35:08;;;;;;;11.73;1.20;;;;;;;;;;4375195;32;66991;-61
2023/08/28 07:37:55;;;;;;;1.30;0.93;;;;;;;;;;4386323;32;59049;-60
2023/08/28 07:40:41;;;;;;;1.37;0.80;;;;;;;;;;4385893;32;70112;-62
2023/08/28 07:43:28;;;;;;;;;;;;;;;;;;4385925;32;68319;-60
2023/08/28 07:46:15;;;;;;;2.37;1.00;;;;;;;;;;4398000;32;67978;-60
2023/08/28 07:49:01;;;;;;;0.98;0.85;;;;;;;;;;4385694;32;71668;-60
2023/08/28 07:51:50;;;;;;;1.25;0.98;;;;;;;;;;4385925;32;65940;-60
2023/08/28 07:54:37;;;;;;;1.33;0.88;;;;;;;;;;4385559;32;66892;-60
2023/08/28 07:57:30;;;;;;;1.20;0.62;;;;;;;;;;4383128;32;61318;-60
2023/08/28 08:00:21;;;;;;;1.37;0.65;;;;;;;;;;4382618;32;72401;-59
2023/08/28 08:03:07;;;;;;;1.58;0.50;;;;;;;;;;4397591;32;65059;-60
2023/08/28 08:05:56;;;;;;;2.33;0.90;;;;;;;;;;4372272;32;67541;-59
2023/08/28 08:08:45;;;;;;;;;;;;;;;;;;4398906;32;60130;-60
2023/08/28 08:11:34;;;;;;;1.33;1.12;;;;;;;;;;4401425;32;69395;-61
2023/08/28 08:14:20;;;;;;;3.80;1.85;;;;;;;;;;4388406;32;68583;-59
2023/08/28 08:17:07;;;;;;;4.68;3.10;;;;;;;;;;4388197;32;67780;-60
2023/08/28 08:19:54;;;;;;;3.33;2.25;;;;;;;;;;4388200;32;71873;-61
2023/08/28 08:22:46;;;;;;;6.18;4.07;;;;;;;;;;4387699;32;69757;-60
2023/08/28 08:25:33;;;;;;;3.45;2.15;;;;;;;;;;4400019;32;69506;-61
2023/08/28 08:28:25;;;;;;;3.83;2.50;;;;;;;;;;4388188;32;67669;-60
2023/08/28 08:31:14;;;;;;;3.97;2.35;;;;;;;;;;4388084;32;71784;-61
2023/08/28 08:34:00;;;;;;;;;;;;;;;;;;4385593;32;63570;-60
2023/08/28 08:36:49;;;;;;;1.10;1.00;;;;;;;;;;4387980;32;67726;-60
2023/08/28 08:39:36;;;;;;;;;;;;;;;;;;4400607;32;60140;-60
2023/08/28 08:42:25;;;;;;;0.60;0.60;;;;;;;;;;4399896;32;69309;-60
2023/08/28 08:45:11;;;;;;;2.15;0.90;;;;;;;;;;4399719;32;69152;-60
2023/08/28 08:48:03;;;;;;;1.48;1.00;;;;;;;;;;4387774;32;67023;-59
2023/08/28 08:50:52;;;;;;;1.37;0.93;;;;;;;;;;4374967;32;60723;-60
2023/08/28 08:54:13;;;;;;;0.37;0.32;;;;;;;;;;4387768;32;70411;-60
2023/08/28 08:57:04;;;;;;;2.22;0.73;;;;;;;;;;4400871;32;69598;-60
2023/08/28 08:59:52;;;;;;;1.15;0.75;;;;;;;;;;4387668;32;67949;-61
2023/08/28 09:02:40;;;;;;;0.93;0.80;;;;;;;;;;4387481;32;71536;-62
2023/08/28 09:05:26;;;;;;;1.37;0.77;;;;;;;;;;4387774;32;64874;-60
2023/08/28 09:08:16;;;;;;;1.02;0.93;;;;;;;;;;4399304;32;67147;-60
2023/08/28 09:11:06;;;;;;;1.17;0.85;;;;;;;;;;4366319;32;60060;-61
2023/08/28 09:13:56;;;;;;;2.00;1.23;;;;;;;;;;4387739;32;71717;-58
2023/08/28 09:16:42;;;;;;;1.65;1.10;;;;;;;;;;4399401;32;65996;-60
2023/08/28 09:19:31;;;;;;;2.70;1.20;;;;;;;;;;4387422;32;67802;-61
2023/08/28 09:22:25;;;;;;;1.95;0.98;;;;;;;;;;4384663;32;60858;-60
2023/08/28 09:25:11;;;;;;;2.78;1.27;;;;;;;;;;4387644;32;70419;-60
2023/08/28 09:27:58;;;;;;;2.47;1.08;;;;;;;;;;4384646;32;69866;-59
2023/08/28 09:30:45;;;;;;;1.73;0.95;;;;;;;;;;4384803;32;67295;-60
2023/08/28 09:33:45;;;;;;;0.90;0.80;;;;;;;;;;4387134;32;71740;-60
2023/08/28 09:36:40;;;;;;;1.42;1.08;;;;;;;;;;4374056;32;67487;-59
2023/08/28 09:39:26;;;;;;;2.62;1.35;;;;;;;;;;4387510;32;69273;-60
2023/08/28 09:42:14;;;;;;;2.35;0.98;;;;;;;;;;4384309;32;68597;-58
2023/08/28 09:45:10;;;;;;;2.28;0.85;;;;;;;;;;4374375;32;71912;-59
2023/08/28 09:47:56;;;;;;;1.00;0.90;;;;;;;;;;4387214;32;64902;-61
2023/08/28 09:50:43;;;;;;;2.85;0.77;;;;;;;;;;4384322;32;68562;-59
2023/08/28 09:53:33;;;;;;;1.65;0.70;;;;;;;;;;4399304;32;59080;-60
2023/08/28 09:56:20;;;;;;;1.87;1.00;;;;;;;;;;4386669;32;69397;-60
2023/08/28 09:59:07;;;;;;;0.75;0.75;;;;;;;;;;4384243;32;69568;-60
2023/08/28 10:01:54;;;;;;;4.87;1.37;;;;;;;;;;4387136;32;66653;-61
2023/08/28 10:04:41;;;;;;;3.25;1.50;;;;;;;;;;4399287;32;60513;-60
2023/08/28 10:07:28;;;;;;;2.33;0.90;;;;;;;;;;4387151;32;70388;-59
2023/08/28 10:10:17;;;;;;;1.27;0.82;;;;;;;;;;4390596;32;69322;-60
2023/08/28 10:13:06;;;;;;;1.70;0.93;;;;;;;;;;4402955;32;67656;-60
2023/08/28 10:16:11;;;;;;;1.05;0.62;;;;;;;;;;4378116;32;70986;-61
2023/08/28 10:19:17;;;;;;;1.02;0.80;;;;;;;;;;4399189;32;66803;-60
2023/08/28 10:22:09;;;;;;;2.10;1.42;;;;;;;;;;4388332;32;67481;-59
2023/08/28 10:24:57;;;;;;;2.37;1.40;;;;;;;;;;4367281;32;60092;-61
2023/08/28 10:27:44;;;;;;;3.15;0.73;;;;;;;;;;4388544;32;70171;-60
2023/08/28 10:30:36;;;;;;;2.17;1.17;;;;;;;;;;4388107;32;66005;-62
2023/08/28 10:33:24;;;;;;;2.15;1.20;;;;;;;;;;4375850;32;66601;-61
2023/08/28 10:36:11;;;;;;;2.53;1.62;;;;;;;;;;4386707;32;60079;-60
2023/08/28 10:39:01;;;;;;;1.25;0.82;;;;;;;;;;4386659;32;70682;-62
2023/08/28 10:41:48;;;;;;;3.00;1.02;;;;;;;;;;4373008;32;68890;-61
2023/08/28 10:44:36;;;;;;;1.75;1.30;;;;;;;;;;4364855;32;67120;-62
2023/08/28 10:47:23;;;;;;;1.95;1.15;;;;;;;;;;4398145;32;72063;-62
2023/08/28 10:50:10;;;;;;;0.40;0.37;;;;;;;;;;4398656;32;66168;-62
2023/08/28 10:52:59;;;;;;;1.87;1.20;;;;;;;;;;4386270;32;68253;-61
2023/08/28 10:55:56;;;;;;;1.15;0.93;;;;;;;;;;4373066;32;67409;-61
2023/08/28 10:58:43;;;;;;;2.30;1.00;;;;;;;;;;4385881;32;70784;-60
2023/08/28 11:01:54;;;;;;;2.55;1.10;;;;;;;;;;4397923;32;65098;-62
2023/08/28 11:04:43;;;;;;;1.92;1.02;;;;;;;;;;4399041;32;67039;-61
2023/08/28 11:07:33;;;;;;;1.98;1.00;;;;;;;;;;4386498;32;60195;-61
2023/08/28 11:10:26;;;;;;;1.33;0.62;;;;;;;;;;4398104;32;70565;-61
2023/08/28 11:13:32;;;;;;;2.22;0.98;;;;;;;;;;4386291;32;68271;-61
2023/08/28 11:16:26;;;;;;;1.83;1.33;;;;;;;;;;4375664;32;66506;-60
2023/08/28 11:19:12;;;;;;;3.95;1.23;;;;;;;;;;4398354;32;60007;-61
2023/08/28 11:21:59;;;;;;;2.10;1.17;;;;;;;;;;4385730;32;69454;-59
2023/08/28 11:24:54;;;;;;;0.98;0.75;;;;;;;;;;4362096;32;69197;-60
2023/08/28 11:27:53;;;;;;;0.43;0.43;;;;;;;;;;4398068;32;67693;-60
2023/08/28 11:30:39;;;;;;;1.42;0.90;;;;;;;;;;4372501;32;72309;-61
2023/08/28 11:36:06;;;;;;;3.30;1.17;;;;;;;;;;3846205;37;43811;-62
2023/08/28 11:38:55;;;;;;;2.80;1.40;;;;;;;;;;4399383;32;60212;-61
2023/08/28 11:41:48;;;;;;;2.58;1.20;;;;;;;;;;4411068;32;70462;-61
2023/08/28 11:44:38;;;;;;;2.42;1.00;;;;;;;;;;4411239;32;68241;-62
2023/08/28 11:47:26;;;;;;;1.40;1.05;;;;;;;;;;4378376;32;67691;-60
2023/08/28 11:50:13;;;;;;;2.28;0.95;;;;;;;;;;4398664;32;71365;-62
2023/08/28 11:53:07;;;;;;;2.25;0.90;;;;;;;;;;4411019;32;64851;-61
2023/08/28 11:55:53;;;;;;;2.20;0.98;;;;;;;;;;4395967;32;66807;-61
2023/08/28 11:58:41;;;;;;;3.53;1.20;;;;;;;;;;4398846;32;60206;-61
2023/08/28 12:01:28;;;;;;;2.90;1.40;;;;;;;;;;4387991;32;71782;-61
2023/08/28 12:04:14;;;;;;;3.97;1.15;;;;;;;;;;4398923;32;66324;-62
2023/08/28 12:07:00;;;;;;;0.82;0.75;;;;;;;;;;4398939;32;67398;-62
2023/08/28 12:09:52;;;;;;;2.42;1.20;;;;;;;;;;4398884;32;59322;-61
2023/08/28 12:12:46;;;;;;;3.08;1.10;;;;;;;;;;4399154;32;70448;-61
2023/08/28 12:15:35;;;;;;;1.90;1.07;;;;;;;;;;4410507;32;68345;-61
2023/08/28 12:18:24;;;;;;;;;;;;;;;;;;4395869;32;67315;-60
2023/08/28 12:21:10;;;;;;;2.10;1.17;;;;;;;;;;4395799;32;71427;-61
2023/08/28 12:23:59;;;;;;;3.00;1.35;;;;;;;;;;4400015;32;65152;-60
2023/08/28 12:26:48;;;;;;;2.15;1.10;;;;;;;;;;4388204;32;69354;-60
2023/08/28 12:29:34;;;;;;;2.33;1.30;;;;;;;;;;3847542;37;43659;-59
2023/08/28 12:32:21;;;;;;;3.30;1.15;;;;;;;;;;4410181;32;59148;-63
2023/08/28 12:35:12;;;;;;;2.00;1.30;;;;;;;;;;4410859;32;69622;-59
2023/08/28 12:38:06;;;;;;;1.52;1.02;;;;;;;;;;4388326;32;70141;-61
2023/08/28 12:40:53;;;;;;;6.37;1.23;;;;;;;;;;4388645;32;67233;-60
2023/08/28 12:43:40;;;;;;;3.45;1.75;;;;;;;;;;4408967;32;71939;-59
2023/08/28 12:46:26;;;;;;;;;;;;;;;;;;4411279;32;65961;-60
2023/08/28 12:49:14;;;;;;;6.00;1.65;;;;;;;;;;4411029;32;66664;-60
2023/08/28 12:52:00;;;;;;;7.85;2.03;;;;;;;;;;4399043;32;59081;-60
2023/08/28 12:54:47;;;;;;;;;;;;;;;;;;4399141;32;71601;-60
2023/08/28 12:57:33;;;;;;;4.05;1.60;;;;;;;;;;4409403;32;66814;-60
2023/08/28 13:00:24;;;;;;;2.90;1.87;;;;;;;;;;4399010;32;67711;-59
2023/08/28 13:03:11;;;;;;;5.90;1.80;;;;;;;;;;4409377;32;60531;-59
2023/08/28 13:06:00;;;;;;;3.28;1.73;;;;;;;;;;4410931;32;70309;-60
2023/08/28 13:08:46;;;;;;;2.72;1.55;;;;;;;;;;4410926;32;68356;-60
2023/08/28 13:11:33;;;;;;;2.67;1.62;;;;;;;;;;4412494;32;67762;-60
2023/08/28 13:14:23;;;;;;;1.25;1.15;;;;;;;;;;4398631;32;70707;-60
2023/08/28 13:17:09;;;;;;;1.23;1.00;;;;;;;;;;4409810;32;66031;-60
2023/08/28 13:20:03;;;;;;;3.37;1.30;;;;;;;;;;4398012;32;70108;-60
2023/08/28 13:22:50;;;;;;;4.15;1.33;;;;;;;;;;4410494;32;67769;-60
2023/08/28 13:25:36;;;;;;;3.08;1.20;;;;;;;;;;4410286;32;71800;-60
2023/08/28 13:28:23;;;;;;;1.85;1.52;;;;;;;;;;4409968;32;64905;-60
2023/08/28 13:31:14;;;;;;;2.80;1.55;;;;;;;;;;4409226;32;66560;-60
2023/08/28 13:34:02;;;;;;;2.90;1.37;;;;;;;;;;4409600;32;60454;-60
2023/08/28 13:36:48;;;;;;;3.42;1.17;;;;;;;;;;4408595;32;71239;-61
2023/08/28 13:39:40;;;;;;;1.83;1.12;;;;;;;;;;4382516;32;69885;-60
2023/08/28 13:42:29;;;;;;;3.28;1.60;;;;;;;;;;4402056;32;67966;-61
2023/08/28 13:45:16;;;;;;;2.55;2.08;;;;;;;;;;4398945;32;59221;-62
2023/08/28 13:48:03;;;;;;;5.00;2.20;;;;;;;;;;4398426;32;69610;-61
2023/08/28 13:50:51;;;;;;;2.00;1.33;;;;;;;;;;4399924;32;69597;-61
2023/08/28 13:53:40;;;;;;;2.20;1.20;;;;;;;;;;4398557;32;67622;-62
2023/08/28 13:56:32;;;;;;;3.62;2.10;;;;;;;;;;4399562;32;71162;-64
2023/08/28 13:59:19;;;;;;;1.55;1.37;;;;;;;;;;4398570;32;65919;-61
2023/08/28 14:02:11;;;;;;;2.80;1.08;;;;;;;;;;4398557;32;67580;-62
2023/08/28 14:04:58;;;;;;;2.62;1.55;;;;;;;;;;4387930;32;59057;-61
2023/08/28 14:07:46;;;;;;;1.37;0.65;;;;;;;;;;4398042;32;69612;-61
2023/08/28 14:10:38;;;;;;;1.42;0.80;;;;;;;;;;4377428;32;66843;-62
2023/08/28 14:13:24;;;;;;;0.98;0.77;;;;;;;;;;4400710;32;67562;-61
2023/08/28 14:16:11;;;;;;;1.98;0.77;;;;;;;;;;4399997;32;60169;-61
2023/08/28 14:18:57;;;;;;;2.00;1.00;;;;;;;;;;4398245;32;69742;-61
2023/08/28 14:21:45;;;;;;;2.05;1.27;;;;;;;;;;4398206;32;69595;-61
2023/08/28 14:24:31;;;;;;;2.12;1.05;;;;;;;;;;4399456;32;67569;-62
2023/08/28 14:27:18;;;;;;;1.65;1.08;;;;;;;;;;4376427;32;71679;-61
2023/08/28 14:30:06;;;;;;;2.90;1.12;;;;;;;;;;4398415;32;66179;-61
2023/08/28 14:32:53;;;;;;;3.17;1.10;;;;;;;;;;4397821;32;67241;-62
2023/08/28 14:35:44;;;;;;;1.83;1.25;;;;;;;;;;4397561;32;68532;-62
2023/08/28 14:38:31;;;;;;;3.75;1.70;;;;;;;;;;4399167;32;71992;-61
2023/08/28 14:41:21;;;;;;;1.83;1.35;;;;;;;;;;4399289;32;66010;-61
2023/08/28 14:44:08;;;;;;;2.08;0.98;;;;;;;;;;4400620;32;67553;-61
2023/08/28 14:46:55;;;;;;;3.12;1.30;;;;;;;;;;4400431;32;58812;-61
2023/08/28 14:49:46;;;;;;;3.95;1.00;;;;;;;;;;4397760;32;69804;-60
2023/08/28 14:52:33;;;;;;;2.50;1.10;;;;;;;;;;4398153;32;68338;-61
2023/08/28 14:55:26;;;;;;;2.00;1.10;;;;;;;;;;4399257;32;67651;-61
2023/08/28 14:58:12;;;;;;;1.37;1.10;;;;;;;;;;4397844;32;60378;-61
2023/08/28 15:00:59;;;;;;;1.45;0.98;;;;;;;;;;4397074;32;70054;-62
2023/08/28 15:03:47;;;;;;;3.47;1.10;;;;;;;;;;4397630;32;69429;-61
2023/08/28 15:06:37;;;;;;;3.62;1.50;;;;;;;;;;4397784;32;67836;-61
2023/08/28 15:09:25;;;;;;;3.30;1.08;;;;;;;;;;4397704;32;71701;-62
2023/08/28 15:12:14;;;;;;;;;;;;;;;;;;4399330;32;65916;-61
2023/08/28 15:15:01;;;;;;;2.20;1.00;;;;;;;;;;4399082;32;68109;-61
2023/08/28 15:17:48;;;;;;;0.80;0.75;;;;;;;;;;4377441;32;61076;-61
2023/08/28 15:20:37;;;;;;;1.58;1.12;;;;;;;;;;4387771;32;70475;-62
2023/08/28 15:23:23;;;;;;;1.65;1.00;;;;;;;;;;4398971;32;65062;-61
2023/08/28 15:26:10;;;;;;;2.12;1.08;;;;;;;;;;4398729;32;67142;-61
2023/08/28 15:28:59;;;;;;;3.22;1.52;;;;;;;;;;4397269;32;60380;-61
2023/08/28 15:31:49;;;;;;;3.05;1.50;;;;;;;;;;4397409;32;70576;-61
2023/08/28 15:34:37;;;;;;;2.53;1.40;;;;;;;;;;4398573;32;69251;-62
2023/08/28 15:37:23;;;;;;;2.20;1.40;;;;;;;;;;4397415;32;66788;-61
2023/08/28 15:40:10;;;;;;;;;;;;;;;;;;4398898;32;70961;-62
2023/08/28 15:42:56;;;;;;;2.53;1.62;;;;;;;;;;4387185;32;65067;-61
2023/08/28 15:45:52;;;;;;;3.20;1.52;;;;;;;;;;4386646;32;67974;-61
2023/08/28 15:48:38;;;;;;;5.47;2.08;;;;;;;;;;4397041;32;67758;-61
2023/08/28 15:51:26;;;;;;;2.80;1.80;;;;;;;;;;4398364;32;71657;-62
2023/08/28 15:54:15;;;;;;;2.70;1.70;;;;;;;;;;4387798;32;65959;-61
2023/08/28 15:57:01;;;;;;;5.12;1.80;;;;;;;;;;4397213;32;67610;-61
2023/08/28 15:59:50;;;;;;;4.00;2.28;;;;;;;;;;4386285;32;59728;-61
2023/08/28 16:02:37;;;;;;;5.62;2.60;;;;;;;;;;4396875;32;70550;-62
2023/08/28 16:05:28;;;;;;;2.80;1.87;;;;;;;;;;4398216;32;68299;-61
2023/08/28 16:08:14;;;;;;;3.95;1.83;;;;;;;;;;4396996;32;67654;-61
2023/08/28 16:11:01;;;;;;;4.80;1.50;;;;;;;;;;4386699;32;71786;-62
2023/08/28 16:13:49;;;;;;;4.10;1.70;;;;;;;;;;4397057;32;70260;-62
2023/08/28 16:16:38;;;;;;;3.90;1.45;;;;;;;;;;4398279;32;68349;-62
2023/08/28 16:19:27;;;;;;;2.05;1.08;;;;;;;;;;4397310;32;66882;-62
2023/08/28 16:22:13;;;;;;;2.28;1.20;;;;;;;;;;4397814;32;70727;-61
2023/08/28 16:25:00;;;;;;;1.20;0.90;;;;;;;;;;4398140;32;65915;-61
2023/08/28 16:27:46;;;;;;;;;;;;;;;;;;4398122;32;67786;-62
2023/08/28 16:30:33;;;;;;;1.70;1.35;;;;;;;;;;4386441;32;58884;-61
2023/08/28 16:33:20;;;;;;;1.37;0.90;;;;;;;;;;4398002;32;70329;-62
2023/08/28 16:36:09;;;;;;;1.98;0.93;;;;;;;;;;4374589;32;70433;-61
2023/08/28 16:38:55;;;;;;;0.98;0.80;;;;;;;;;;4397852;32;67477;-60
2023/08/28 16:41:42;;;;;;;0.57;0.57;;;;;;;;;;4387672;32;59084;-62
2023/08/28 16:44:28;;;;;;;;;;;;;;;;;;4398176;32;69825;-62
2023/08/28 16:47:15;;;;;;;2.62;0.80;;;;;;;;;;4396723;32;69365;-61
2023/08/28 16:50:03;;;;;;;1.17;0.60;;;;;;;;;;4385694;32;66639;-62
2023/08/28 16:52:49;;;;;;;1.25;0.75;;;;;;;;;;4396513;32;71531;-61
2023/08/28 16:55:40;;;;;;;1.23;0.70;;;;;;;;;;4397881;32;65995;-61
2023/08/28 16:58:29;;;;;;;0.93;0.62;;;;;;;;;;4397744;32;67088;-60
2023/08/28 17:01:26;;;;;;;0.62;0.60;;;;;;;;;;4398027;32;59438;-62
2023/08/28 17:04:12;;;;;;;1.48;0.62;;;;;;;;;;4397604;32;71730;-60